Terminal Aerodrome Forecast
Issued by NWS Corpus Christi, TX

Current Version | Previous Version | Text Only | Print | Product List | Glossary Off
Versions: 1 2 3 4 5 6 7 8 9 10 11 12

000
FTUS44 KCRP 271700
TAFVCT
TAF
KVCT 271730Z 2718/2818 05018KT P6SM BKN022
      TEMPO 2718/2722 BKN035
     FM272200 05014KT P6SM BKN015 OVC024
     FM281000 06015KT P6SM OVC014 PROB30 2812/2818 5SM -RA BR
      OVC007=

USA.gov is the U.S. government's official web portal to all federal, state and local government web resources and services.